sensor_id;sensor_type;location;lat;lon;timestamp;temperature;humidity
19340;HTU21D;9804;52.350;6.684;2023-05-10T00:01:10;15.96;-6.00
19340;HTU21D;9804;52.350;6.684;2023-05-10T00:03:36;15.88;-6.00
19340;HTU21D;9804;52.350;6.684;2023-05-10T00:06:01;15.87;-6.00
19340;HTU21D;9804;52.350;6.684;2023-05-10T00:08:26;15.75;-6.00
19340;HTU21D;9804;52.350;6.684;2023-05-10T00:10:52;15.59;-6.00
19340;HTU21D;9804;52.350;6.684;2023-05-10T00:13:18;15.76;-6.00
19340;HTU21D;9804;52.350;6.684;2023-05-10T00:15:43;15.89;-6.00
19340;HTU21D;9804;52.350;6.684;2023-05-10T00:18:08;15.67;-6.00
19340;HTU21D;9804;52.350;6.684;2023-05-10T00:20:34;15.67;-6.00
19340;HTU21D;9804;52.350;6.684;2023-05-10T00:22:59;15.41;-6.00
19340;HTU21D;9804;52.350;6.684;2023-05-10T00:25:24;15.44;-6.00
19340;HTU21D;9804;52.350;6.684;2023-05-10T00:27:50;15.60;-6.00
19340;HTU21D;9804;52.350;6.684;2023-05-10T00:30:16;15.55;-6.00
19340;HTU21D;9804;52.350;6.684;2023-05-10T00:32:41;15.67;-6.00
19340;HTU21D;9804;52.350;6.684;2023-05-10T00:35:07;15.55;-6.00
19340;HTU21D;9804;52.350;6.684;2023-05-10T00:37:33;15.76;-6.00
19340;HTU21D;9804;52.350;6.684;2023-05-10T00:39:58;15.71;-6.00
19340;HTU21D;9804;52.350;6.684;2023-05-10T00:42:23;15.80;-6.00
19340;HTU21D;9804;52.350;6.684;2023-05-10T00:44:49;15.66;-6.00
19340;HTU21D;9804;52.350;6.684;2023-05-10T00:47:15;15.67;-6.00
19340;HTU21D;9804;52.350;6.684;2023-05-10T00:49:41;15.93;-6.00
19340;HTU21D;9804;52.350;6.684;2023-05-10T00:52:07;15.92;-6.00
19340;HTU21D;9804;52.350;6.684;2023-05-10T00:54:32;15.84;-6.00
19340;HTU21D;9804;52.350;6.684;2023-05-10T00:56:58;15.73;-6.00
19340;HTU21D;9804;52.350;6.684;2023-05-10T00:59:24;15.76;-6.00
19340;HTU21D;9804;52.350;6.684;2023-05-10T01:01:49;15.77;-6.00
19340;HTU21D;9804;52.350;6.684;2023-05-10T01:04:17;15.69;-6.00
19340;HTU21D;9804;52.350;6.684;2023-05-10T01:06:45;15.69;-6.00
19340;HTU21D;9804;52.350;6.684;2023-05-10T01:09:10;15.73;-6.00
19340;HTU21D;9804;52.350;6.684;2023-05-10T01:11:38;15.99;-6.00
19340;HTU21D;9804;52.350;6.684;2023-05-10T01:14:03;15.85;-6.00
19340;HTU21D;9804;52.350;6.684;2023-05-10T01:16:32;15.52;-6.00
19340;HTU21D;9804;52.350;6.684;2023-05-10T01:18:58;15.49;-6.00
19340;HTU21D;9804;52.350;6.684;2023-05-10T01:21:43;15.84;-6.00
19340;HTU21D;9804;52.350;6.684;2023-05-10T01:27:14;15.62;-6.00
19340;HTU21D;9804;52.350;6.684;2023-05-10T01:30:05;15.87;-6.00
19340;HTU21D;9804;52.350;6.684;2023-05-10T01:35:17;15.75;-6.00
19340;HTU21D;9804;52.350;6.684;2023-05-10T01:37:59;15.86;-6.00
19340;HTU21D;9804;52.350;6.684;2023-05-10T01:40:30;15.58;-6.00
19340;HTU21D;9804;52.350;6.684;2023-05-10T01:43:03;15.80;-6.00
19340;HTU21D;9804;52.350;6.684;2023-05-10T01:45:46;15.60;-6.00
19340;HTU21D;9804;52.350;6.684;2023-05-10T01:48:13;15.63;-6.00
19340;HTU21D;9804;52.350;6.684;2023-05-10T01:50:42;15.59;-6.00
19340;HTU21D;9804;52.350;6.684;2023-05-10T01:53:10;15.62;-6.00
19340;HTU21D;9804;52.350;6.684;2023-05-10T01:55:43;15.42;-6.00
19340;HTU21D;9804;52.350;6.684;2023-05-10T01:58:21;15.62;-6.00
19340;HTU21D;9804;52.350;6.684;2023-05-10T02:00:49;15.54;-6.00
19340;HTU21D;9804;52.350;6.684;2023-05-10T02:03:16;15.62;-6.00
19340;HTU21D;9804;52.350;6.684;2023-05-10T02:05:43;15.72;-6.00
19340;HTU21D;9804;52.350;6.684;2023-05-10T02:08:11;15.72;-6.00
19340;HTU21D;9804;52.350;6.684;2023-05-10T02:10:37;15.66;-6.00
19340;HTU21D;9804;52.350;6.684;2023-05-10T02:13:05;15.46;-6.00
19340;HTU21D;9804;52.350;6.684;2023-05-10T02:15:32;15.71;-6.00
19340;HTU21D;9804;52.350;6.684;2023-05-10T02:18:00;15.51;-6.00
19340;HTU21D;9804;52.350;6.684;2023-05-10T02:20:26;15.47;-6.00
19340;HTU21D;9804;52.350;6.684;2023-05-10T02:22:52;15.72;-6.00
19340;HTU21D;9804;52.350;6.684;2023-05-10T02:25:20;15.78;-6.00
19340;HTU21D;9804;52.350;6.684;2023-05-10T02:27:46;15.66;-6.00
19340;HTU21D;9804;52.350;6.684;2023-05-10T02:30:13;15.62;-6.00
19340;HTU21D;9804;52.350;6.684;2023-05-10T02:32:38;15.70;-6.00
19340;HTU21D;9804;52.350;6.684;2023-05-10T02:35:05;15.74;-6.00
19340;HTU21D;9804;52.350;6.684;2023-05-10T02:37:31;15.74;-6.00
19340;HTU21D;9804;52.350;6.684;2023-05-10T02:39:58;15.54;-6.00
19340;HTU21D;9804;52.350;6.684;2023-05-10T02:42:26;15.65;-6.00
19340;HTU21D;9804;52.350;6.684;2023-05-10T02:44:54;15.70;-6.00
19340;HTU21D;9804;52.350;6.684;2023-05-10T02:47:21;15.68;-6.00
19340;HTU21D;9804;52.350;6.684;2023-05-10T02:49:47;15.51;-6.00
19340;HTU21D;9804;52.350;6.684;2023-05-10T02:52:16;15.67;-6.00
19340;HTU21D;9804;52.350;6.684;2023-05-10T02:54:45;15.56;-6.00
19340;HTU21D;9804;52.350;6.684;2023-05-10T02:57:16;15.80;-6.00
19340;HTU21D;9804;52.350;6.684;2023-05-10T02:59:43;15.80;-6.00
19340;HTU21D;9804;52.350;6.684;2023-05-10T03:02:12;15.61;-6.00
19340;HTU21D;9804;52.350;6.684;2023-05-10T03:04:37;15.69;-6.00
19340;HTU21D;9804;52.350;6.684;2023-05-10T03:07:03;15.70;-6.00
19340;HTU21D;9804;52.350;6.684;2023-05-10T03:09:28;15.53;-6.00
19340;HTU21D;9804;52.350;6.684;2023-05-10T03:17:36;15.68;-6.00
19340;HTU21D;9804;52.350;6.684;2023-05-10T03:20:10;15.73;-6.00
19340;HTU21D;9804;52.350;6.684;2023-05-10T03:22:40;15.56;-6.00
19340;HTU21D;9804;52.350;6.684;2023-05-10T03:25:10;15.68;-6.00
19340;HTU21D;9804;52.350;6.684;2023-05-10T03:27:39;15.69;-6.00
19340;HTU21D;9804;52.350;6.684;2023-05-10T03:30:07;15.62;-6.00
19340;HTU21D;9804;52.350;6.684;2023-05-10T03:32:33;15.60;-6.00
19340;HTU21D;9804;52.350;6.684;2023-05-10T03:34:59;15.66;-6.00
19340;HTU21D;9804;52.350;6.684;2023-05-10T03:37:25;15.66;-6.00
19340;HTU21D;9804;52.350;6.684;2023-05-10T03:39:50;15.70;-6.00
19340;HTU21D;9804;52.350;6.684;2023-05-10T03:42:16;15.70;-6.00
19340;HTU21D;9804;52.350;6.684;2023-05-10T03:44:42;15.59;-6.00
19340;HTU21D;9804;52.350;6.684;2023-05-10T03:47:08;15.53;-6.00
19340;HTU21D;9804;52.350;6.684;2023-05-10T03:49:33;15.55;-6.00
19340;HTU21D;9804;52.350;6.684;2023-05-10T03:51:59;15.74;-6.00
19340;HTU21D;9804;52.350;6.684;2023-05-10T03:54:24;15.56;-6.00
19340;HTU21D;9804;52.350;6.684;2023-05-10T03:56:49;15.80;-6.00
19340;HTU21D;9804;52.350;6.684;2023-05-10T03:59:15;15.72;-6.00
19340;HTU21D;9804;52.350;6.684;2023-05-10T04:01:40;15.67;-6.00
19340;HTU21D;9804;52.350;6.684;2023-05-10T04:04:05;15.71;-6.00
19340;HTU21D;9804;52.350;6.684;2023-05-10T04:06:31;15.82;-6.00
19340;HTU21D;9804;52.350;6.684;2023-05-10T04:08:57;15.68;-6.00
19340;HTU21D;9804;52.350;6.684;2023-05-10T04:11:25;15.74;-6.00
19340;HTU21D;9804;52.350;6.684;2023-05-10T04:13:50;15.71;-6.00
19340;HTU21D;9804;52.350;6.684;2023-05-10T04:16:16;15.80;-6.00
19340;HTU21D;9804;52.350;6.684;2023-05-10T04:18:41;15.86;-6.00
19340;HTU21D;9804;52.350;6.684;2023-05-10T04:21:13;15.96;-6.00
19340;HTU21D;9804;52.350;6.684;2023-05-10T04:23:41;15.95;-6.00
19340;HTU21D;9804;52.350;6.684;2023-05-10T04:26:07;15.78;-6.00
19340;HTU21D;9804;52.350;6.684;2023-05-10T04:28:32;15.91;-6.00
19340;HTU21D;9804;52.350;6.684;2023-05-10T04:31:10;15.90;-6.00
19340;HTU21D;9804;52.350;6.684;2023-05-10T04:33:37;15.92;-6.00
19340;HTU21D;9804;52.350;6.684;2023-05-10T04:36:03;15.92;-6.00
19340;HTU21D;9804;52.350;6.684;2023-05-10T04:38:28;15.82;-6.00
19340;HTU21D;9804;52.350;6.684;2023-05-10T04:40:54;15.84;-6.00
19340;HTU21D;9804;52.350;6.684;2023-05-10T04:43:19;15.99;-6.00
19340;HTU21D;9804;52.350;6.684;2023-05-10T04:45:45;15.93;-6.00
19340;HTU21D;9804;52.350;6.684;2023-05-10T04:48:10;15.87;-6.00
19340;HTU21D;9804;52.350;6.684;2023-05-10T04:50:37;16.01;-6.00
19340;HTU21D;9804;52.350;6.684;2023-05-10T04:53:02;15.99;-6.00
19340;HTU21D;9804;52.350;6.684;2023-05-10T04:55:28;16.07;-6.00
19340;HTU21D;9804;52.350;6.684;2023-05-10T04:57:53;15.74;-6.00
19340;HTU21D;9804;52.350;6.684;2023-05-10T05:00:22;15.82;-6.00
19340;HTU21D;9804;52.350;6.684;2023-05-10T05:02:47;15.99;-6.00
19340;HTU21D;9804;52.350;6.684;2023-05-10T05:05:12;15.86;-6.00
19340;HTU21D;9804;52.350;6.684;2023-05-10T05:07:38;16.03;-6.00
19340;HTU21D;9804;52.350;6.684;2023-05-10T05:10:05;15.98;-6.00
19340;HTU21D;9804;52.350;6.684;2023-05-10T05:12:31;16.07;-6.00
19340;HTU21D;9804;52.350;6.684;2023-05-10T05:14:56;16.05;-6.00
19340;HTU21D;9804;52.350;6.684;2023-05-10T05:17:21;15.92;-6.00
19340;HTU21D;9804;52.350;6.684;2023-05-10T05:19:47;15.83;-6.00
19340;HTU21D;9804;52.350;6.684;2023-05-10T05:22:12;15.91;-6.00
19340;HTU21D;9804;52.350;6.684;2023-05-10T05:24:37;16.01;-6.00
19340;HTU21D;9804;52.350;6.684;2023-05-10T05:27:03;15.97;-6.00
19340;HTU21D;9804;52.350;6.684;2023-05-10T05:29:29;16.01;-6.00
19340;HTU21D;9804;52.350;6.684;2023-05-10T05:31:54;16.01;-6.00
19340;HTU21D;9804;52.350;6.684;2023-05-10T05:34:20;15.96;-6.00
19340;HTU21D;9804;52.350;6.684;2023-05-10T05:36:47;15.77;-6.00
19340;HTU21D;9804;52.350;6.684;2023-05-10T05:39:13;15.84;-6.00
19340;HTU21D;9804;52.350;6.684;2023-05-10T05:41:38;16.08;-6.00
19340;HTU21D;9804;52.350;6.684;2023-05-10T05:44:03;16.01;-6.00
19340;HTU21D;9804;52.350;6.684;2023-05-10T05:46:29;16.13;-6.00
19340;HTU21D;9804;52.350;6.684;2023-05-10T05:48:54;16.11;-6.00
19340;HTU21D;9804;52.350;6.684;2023-05-10T05:51:19;16.30;-6.00
19340;HTU21D;9804;52.350;6.684;2023-05-10T05:53:45;16.44;-6.00
19340;HTU21D;9804;52.350;6.684;2023-05-10T05:56:10;16.25;-6.00
19340;HTU21D;9804;52.350;6.684;2023-05-10T05:58:36;16.33;-6.00
19340;HTU21D;9804;52.350;6.684;2023-05-10T06:01:01;16.12;-6.00
19340;HTU21D;9804;52.350;6.684;2023-05-10T06:03:26;16.16;-6.00
19340;HTU21D;9804;52.350;6.684;2023-05-10T06:05:52;16.19;-6.00
19340;HTU21D;9804;52.350;6.684;2023-05-10T06:08:17;16.07;-6.00
19340;HTU21D;9804;52.350;6.684;2023-05-10T06:10:42;15.92;-6.00
19340;HTU21D;9804;52.350;6.684;2023-05-10T06:13:08;16.00;-6.00
19340;HTU21D;9804;52.350;6.684;2023-05-10T06:15:33;16.06;-6.00
19340;HTU21D;9804;52.350;6.684;2023-05-10T06:17:59;16.19;-6.00
19340;HTU21D;9804;52.350;6.684;2023-05-10T06:20:25;16.12;-6.00
19340;HTU21D;9804;52.350;6.684;2023-05-10T06:22:50;16.54;-6.00
19340;HTU21D;9804;52.350;6.684;2023-05-10T06:25:16;16.52;-6.00
19340;HTU21D;9804;52.350;6.684;2023-05-10T06:27:43;16.37;-6.00
19340;HTU21D;9804;52.350;6.684;2023-05-10T06:30:09;16.50;-6.00
19340;HTU21D;9804;52.350;6.684;2023-05-10T06:32:34;16.59;-6.00
19340;HTU21D;9804;52.350;6.684;2023-05-10T06:35:00;16.50;-6.00
19340;HTU21D;9804;52.350;6.684;2023-05-10T06:37:25;16.75;-6.00
19340;HTU21D;9804;52.350;6.684;2023-05-10T06:39:50;16.67;-6.00
19340;HTU21D;9804;52.350;6.684;2023-05-10T06:42:16;16.87;-6.00
19340;HTU21D;9804;52.350;6.684;2023-05-10T06:44:41;16.91;-6.00
19340;HTU21D;9804;52.350;6.684;2023-05-10T06:47:07;16.52;-6.00
19340;HTU21D;9804;52.350;6.684;2023-05-10T06:49:32;16.84;-6.00
19340;HTU21D;9804;52.350;6.684;2023-05-10T06:51:57;17.05;-6.00
19340;HTU21D;9804;52.350;6.684;2023-05-10T06:54:23;16.94;-6.00
19340;HTU21D;9804;52.350;6.684;2023-05-10T06:56:48;16.64;-6.00
19340;HTU21D;9804;52.350;6.684;2023-05-10T06:59:14;16.91;-6.00
19340;HTU21D;9804;52.350;6.684;2023-05-10T07:01:41;16.70;-6.00
19340;HTU21D;9804;52.350;6.684;2023-05-10T07:04:06;16.52;-6.00
19340;HTU21D;9804;52.350;6.684;2023-05-10T07:06:33;16.85;-6.00
19340;HTU21D;9804;52.350;6.684;2023-05-10T07:08:58;16.44;-6.00
19340;HTU21D;9804;52.350;6.684;2023-05-10T07:11:24;16.63;-6.00
19340;HTU21D;9804;52.350;6.684;2023-05-10T07:13:49;16.85;-6.00
19340;HTU21D;9804;52.350;6.684;2023-05-10T07:16:15;16.86;-6.00
19340;HTU21D;9804;52.350;6.684;2023-05-10T07:18:40;17.35;-6.00
19340;HTU21D;9804;52.350;6.684;2023-05-10T07:21:06;17.55;-6.00
19340;HTU21D;9804;52.350;6.684;2023-05-10T07:23:31;17.60;-6.00
19340;HTU21D;9804;52.350;6.684;2023-05-10T07:25:57;17.73;-6.00
19340;HTU21D;9804;52.350;6.684;2023-05-10T07:28:23;17.61;-6.00
19340;HTU21D;9804;52.350;6.684;2023-05-10T07:30:49;17.46;-6.00
19340;HTU21D;9804;52.350;6.684;2023-05-10T07:33:15;17.19;-6.00
19340;HTU21D;9804;52.350;6.684;2023-05-10T07:35:41;17.26;-6.00
19340;HTU21D;9804;52.350;6.684;2023-05-10T07:38:06;17.00;-6.00
19340;HTU21D;9804;52.350;6.684;2023-05-10T07:40:32;17.14;-6.00
19340;HTU21D;9804;52.350;6.684;2023-05-10T07:42:57;17.04;-6.00
19340;HTU21D;9804;52.350;6.684;2023-05-10T07:45:23;17.43;-6.00
19340;HTU21D;9804;52.350;6.684;2023-05-10T07:47:49;16.91;-6.00
19340;HTU21D;9804;52.350;6.684;2023-05-10T07:50:14;17.04;-6.00
19340;HTU21D;9804;52.350;6.684;2023-05-10T07:52:40;16.72;-6.00
19340;HTU21D;9804;52.350;6.684;2023-05-10T07:55:06;16.73;-6.00
19340;HTU21D;9804;52.350;6.684;2023-05-10T07:57:33;16.98;-6.00
19340;HTU21D;9804;52.350;6.684;2023-05-10T07:59:59;16.67;-6.00
19340;HTU21D;9804;52.350;6.684;2023-05-10T08:02:24;16.50;-6.00
19340;HTU21D;9804;52.350;6.684;2023-05-10T08:04:50;16.63;-6.00
19340;HTU21D;9804;52.350;6.684;2023-05-10T08:07:15;16.84;-6.00
19340;HTU21D;9804;52.350;6.684;2023-05-10T08:09:41;16.99;-6.00
19340;HTU21D;9804;52.350;6.684;2023-05-10T08:12:06;16.98;-6.00
19340;HTU21D;9804;52.350;6.684;2023-05-10T08:14:32;16.72;-6.00
19340;HTU21D;9804;52.350;6.684;2023-05-10T08:16:57;17.17;-6.00
19340;HTU21D;9804;52.350;6.684;2023-05-10T08:19:22;17.28;-6.00
19340;HTU21D;9804;52.350;6.684;2023-05-10T08:21:48;17.10;-6.00
19340;HTU21D;9804;52.350;6.684;2023-05-10T08:24:14;17.37;-6.00
19340;HTU21D;9804;52.350;6.684;2023-05-10T08:26:39;17.24;-6.00
19340;HTU21D;9804;52.350;6.684;2023-05-10T08:29:05;17.39;-6.00
19340;HTU21D;9804;52.350;6.684;2023-05-10T08:31:30;17.05;-6.00
19340;HTU21D;9804;52.350;6.684;2023-05-10T08:33:56;17.02;-6.00
19340;HTU21D;9804;52.350;6.684;2023-05-10T08:36:21;16.80;-6.00
19340;HTU21D;9804;52.350;6.684;2023-05-10T08:38:50;16.66;-6.00
19340;HTU21D;9804;52.350;6.684;2023-05-10T08:41:16;16.66;-6.00
19340;HTU21D;9804;52.350;6.684;2023-05-10T08:43:43;16.85;-6.00
19340;HTU21D;9804;52.350;6.684;2023-05-10T08:46:16;16.57;-6.00
19340;HTU21D;9804;52.350;6.684;2023-05-10T08:48:46;16.58;-6.00
19340;HTU21D;9804;52.350;6.684;2023-05-10T08:51:19;16.70;-6.00
19340;HTU21D;9804;52.350;6.684;2023-05-10T08:53:46;17.21;-6.00
19340;HTU21D;9804;52.350;6.684;2023-05-10T08:56:12;16.96;-6.00
19340;HTU21D;9804;52.350;6.684;2023-05-10T08:58:38;17.16;-6.00
19340;HTU21D;9804;52.350;6.684;2023-05-10T09:01:04;17.64;-6.00
19340;HTU21D;9804;52.350;6.684;2023-05-10T09:03:30;17.55;-6.00
19340;HTU21D;9804;52.350;6.684;2023-05-10T09:05:56;17.60;-6.00
19340;HTU21D;9804;52.350;6.684;2023-05-10T09:08:26;18.10;-6.00
19340;HTU21D;9804;52.350;6.684;2023-05-10T09:10:52;18.11;-6.00
19340;HTU21D;9804;52.350;6.684;2023-05-10T09:13:18;17.49;-6.00
19340;HTU21D;9804;52.350;6.684;2023-05-10T09:15:44;17.90;-6.00
19340;HTU21D;9804;52.350;6.684;2023-05-10T09:18:10;18.25;-6.00
19340;HTU21D;9804;52.350;6.684;2023-05-10T09:20:35;18.33;-6.00
19340;HTU21D;9804;52.350;6.684;2023-05-10T09:23:01;17.89;-6.00
19340;HTU21D;9804;52.350;6.684;2023-05-10T09:25:26;18.23;-6.00
19340;HTU21D;9804;52.350;6.684;2023-05-10T09:27:52;18.40;-6.00
19340;HTU21D;9804;52.350;6.684;2023-05-10T09:30:27;18.53;-6.00
19340;HTU21D;9804;52.350;6.684;2023-05-10T09:32:53;19.02;-6.00
19340;HTU21D;9804;52.350;6.684;2023-05-10T09:35:20;18.63;-6.00
19340;HTU21D;9804;52.350;6.684;2023-05-10T09:37:48;18.77;-6.00
19340;HTU21D;9804;52.350;6.684;2023-05-10T09:40:15;18.43;-6.00
19340;HTU21D;9804;52.350;6.684;2023-05-10T09:42:50;18.51;-6.00
19340;HTU21D;9804;52.350;6.684;2023-05-10T09:45:16;18.26;-6.00
19340;HTU21D;9804;52.350;6.684;2023-05-10T09:47:41;18.33;-6.00
19340;HTU21D;9804;52.350;6.684;2023-05-10T09:50:06;18.58;-6.00
19340;HTU21D;9804;52.350;6.684;2023-05-10T09:52:56;18.19;-6.00
19340;HTU21D;9804;52.350;6.684;2023-05-10T09:55:42;18.84;-6.00
19340;HTU21D;9804;52.350;6.684;2023-05-10T09:58:10;18.28;-6.00
19340;HTU21D;9804;52.350;6.684;2023-05-10T10:00:37;19.13;-6.00
19340;HTU21D;9804;52.350;6.684;2023-05-10T10:03:04;18.71;-6.00
19340;HTU21D;9804;52.350;6.684;2023-05-10T10:05:33;18.67;-6.00
19340;HTU21D;9804;52.350;6.684;2023-05-10T10:08:00;18.98;-6.00
19340;HTU21D;9804;52.350;6.684;2023-05-10T10:10:26;18.68;-6.00
19340;HTU21D;9804;52.350;6.684;2023-05-10T10:12:53;19.10;-6.00
19340;HTU21D;9804;52.350;6.684;2023-05-10T10:15:20;19.03;-6.00
19340;HTU21D;9804;52.350;6.684;2023-05-10T10:17:46;19.40;-6.00
19340;HTU21D;9804;52.350;6.684;2023-05-10T10:20:13;19.14;-6.00
19340;HTU21D;9804;52.350;6.684;2023-05-10T10:22:38;19.17;-6.00
19340;HTU21D;9804;52.350;6.684;2023-05-10T10:25:04;19.65;-6.00
19340;HTU21D;9804;52.350;6.684;2023-05-10T10:27:49;18.89;-6.00
19340;HTU21D;9804;52.350;6.684;2023-05-10T10:30:29;19.39;-6.00
19340;HTU21D;9804;52.350;6.684;2023-05-10T10:35:29;19.23;-6.00
19340;HTU21D;9804;52.350;6.684;2023-05-10T10:37:55;18.96;-6.00
19340;HTU21D;9804;52.350;6.684;2023-05-10T10:40:28;18.73;-6.00
19340;HTU21D;9804;52.350;6.684;2023-05-10T10:42:55;18.62;-6.00
19340;HTU21D;9804;52.350;6.684;2023-05-10T10:45:21;18.79;-6.00
19340;HTU21D;9804;52.350;6.684;2023-05-10T10:47:47;18.84;-6.00
19340;HTU21D;9804;52.350;6.684;2023-05-10T10:50:13;19.08;-6.00
19340;HTU21D;9804;52.350;6.684;2023-05-10T10:52:40;19.33;-6.00
19340;HTU21D;9804;52.350;6.684;2023-05-10T10:55:09;19.40;-6.00
19340;HTU21D;9804;52.350;6.684;2023-05-10T10:57:54;19.29;-6.00
19340;HTU21D;9804;52.350;6.684;2023-05-10T11:00:30;20.22;-6.00
19340;HTU21D;9804;52.350;6.684;2023-05-10T11:05:43;19.02;-6.00
19340;HTU21D;9804;52.350;6.684;2023-05-10T11:10:40;20.27;-6.00
19340;HTU21D;9804;52.350;6.684;2023-05-10T11:13:13;19.57;-6.00
19340;HTU21D;9804;52.350;6.684;2023-05-10T11:15:40;20.21;-6.00
19340;HTU21D;9804;52.350;6.684;2023-05-10T11:21:00;19.28;-6.00
19340;HTU21D;9804;52.350;6.684;2023-05-10T11:23:54;19.81;-6.00
19340;HTU21D;9804;52.350;6.684;2023-05-10T11:26:22;19.58;-6.00
19340;HTU21D;9804;52.350;6.684;2023-05-10T11:28:51;19.51;-6.00
19340;HTU21D;9804;52.350;6.684;2023-05-10T11:31:18;19.63;-6.00
19340;HTU21D;9804;52.350;6.684;2023-05-10T11:33:48;19.38;-6.00
19340;HTU21D;9804;52.350;6.684;2023-05-10T11:36:15;19.48;-6.00
19340;HTU21D;9804;52.350;6.684;2023-05-10T11:38:41;19.91;-6.00
19340;HTU21D;9804;52.350;6.684;2023-05-10T11:41:09;19.52;-6.00
19340;HTU21D;9804;52.350;6.684;2023-05-10T11:43:35;19.25;-6.00
19340;HTU21D;9804;52.350;6.684;2023-05-10T11:46:06;19.46;-6.00
19340;HTU21D;9804;52.350;6.684;2023-05-10T11:48:32;19.74;-6.00
19340;HTU21D;9804;52.350;6.684;2023-05-10T11:50:58;19.11;-6.00
19340;HTU21D;9804;52.350;6.684;2023-05-10T11:53:26;19.05;-6.00
19340;HTU21D;9804;52.350;6.684;2023-05-10T11:55:52;19.50;-6.00
19340;HTU21D;9804;52.350;6.684;2023-05-10T11:58:18;19.43;-6.00
19340;HTU21D;9804;52.350;6.684;2023-05-10T12:00:44;19.13;-6.00
19340;HTU21D;9804;52.350;6.684;2023-05-10T12:03:10;19.36;-6.00
19340;HTU21D;9804;52.350;6.684;2023-05-10T12:05:36;19.36;-6.00
19340;HTU21D;9804;52.350;6.684;2023-05-10T12:08:15;19.16;-6.00
19340;HTU21D;9804;52.350;6.684;2023-05-10T12:10:44;18.98;-6.00
19340;HTU21D;9804;52.350;6.684;2023-05-10T12:13:14;18.80;-6.00
19340;HTU21D;9804;52.350;6.684;2023-05-10T12:15:40;18.86;-6.00
19340;HTU21D;9804;52.350;6.684;2023-05-10T12:18:05;19.52;-6.00
19340;HTU21D;9804;52.350;6.684;2023-05-10T12:20:33;18.89;-6.00
19340;HTU21D;9804;52.350;6.684;2023-05-10T12:22:58;19.09;-6.00
19340;HTU21D;9804;52.350;6.684;2023-05-10T12:25:30;19.14;-6.00
19340;HTU21D;9804;52.350;6.684;2023-05-10T12:27:57;19.87;-6.00
19340;HTU21D;9804;52.350;6.684;2023-05-10T12:30:27;19.62;-6.00
19340;HTU21D;9804;52.350;6.684;2023-05-10T12:33:00;20.26;-6.00
19340;HTU21D;9804;52.350;6.684;2023-05-10T12:35:26;20.32;-6.00
19340;HTU21D;9804;52.350;6.684;2023-05-10T12:37:51;19.63;-6.00
19340;HTU21D;9804;52.350;6.684;2023-05-10T12:40:17;19.85;-6.00
19340;HTU21D;9804;52.350;6.684;2023-05-10T12:42:42;20.70;-6.00
19340;HTU21D;9804;52.350;6.684;2023-05-10T12:45:10;21.59;-6.00
19340;HTU21D;9804;52.350;6.684;2023-05-10T12:47:37;21.29;-6.00
19340;HTU21D;9804;52.350;6.684;2023-05-10T12:50:02;20.95;-6.00
19340;HTU21D;9804;52.350;6.684;2023-05-10T12:52:28;21.35;-6.00
19340;HTU21D;9804;52.350;6.684;2023-05-10T12:54:54;20.20;-6.00
19340;HTU21D;9804;52.350;6.684;2023-05-10T12:57:22;19.92;-6.00
19340;HTU21D;9804;52.350;6.684;2023-05-10T12:59:48;20.71;-6.00
19340;HTU21D;9804;52.350;6.684;2023-05-10T13:02:13;19.84;-6.00
19340;HTU21D;9804;52.350;6.684;2023-05-10T13:04:40;20.12;-6.00
19340;HTU21D;9804;52.350;6.684;2023-05-10T13:07:06;19.58;-6.00
19340;HTU21D;9804;52.350;6.684;2023-05-10T13:09:32;19.47;-6.00
19340;HTU21D;9804;52.350;6.684;2023-05-10T13:11:57;19.72;-6.00
19340;HTU21D;9804;52.350;6.684;2023-05-10T13:14:24;19.73;-6.00
19340;HTU21D;9804;52.350;6.684;2023-05-10T13:16:50;19.14;-6.00
19340;HTU21D;9804;52.350;6.684;2023-05-10T13:19:15;19.22;-6.00
19340;HTU21D;9804;52.350;6.684;2023-05-10T13:21:42;19.32;-6.00
19340;HTU21D;9804;52.350;6.684;2023-05-10T13:24:07;19.94;-6.00
19340;HTU21D;9804;52.350;6.684;2023-05-10T13:26:33;20.41;-6.00
19340;HTU21D;9804;52.350;6.684;2023-05-10T13:28:58;19.89;-6.00
19340;HTU21D;9804;52.350;6.684;2023-05-10T13:31:23;19.94;-6.00
19340;HTU21D;9804;52.350;6.684;2023-05-10T13:33:49;20.37;-6.00
19340;HTU21D;9804;52.350;6.684;2023-05-10T13:36:14;21.06;-6.00
19340;HTU21D;9804;52.350;6.684;2023-05-10T13:38:40;21.06;-6.00
19340;HTU21D;9804;52.350;6.684;2023-05-10T13:41:05;21.30;-6.00
19340;HTU21D;9804;52.350;6.684;2023-05-10T13:43:31;21.36;-6.00
19340;HTU21D;9804;52.350;6.684;2023-05-10T13:45:56;21.88;-6.00
19340;HTU21D;9804;52.350;6.684;2023-05-10T13:48:22;21.05;-6.00
19340;HTU21D;9804;52.350;6.684;2023-05-10T13:50:47;21.08;-6.00
19340;HTU21D;9804;52.350;6.684;2023-05-10T13:53:13;21.00;-6.00
19340;HTU21D;9804;52.350;6.684;2023-05-10T13:55:39;20.28;-6.00
19340;HTU21D;9804;52.350;6.684;2023-05-10T13:58:05;19.98;-6.00
19340;HTU21D;9804;52.350;6.684;2023-05-10T14:00:30;19.98;-6.00
19340;HTU21D;9804;52.350;6.684;2023-05-10T14:02:55;20.51;-6.00
19340;HTU21D;9804;52.350;6.684;2023-05-10T14:05:21;20.58;-6.00
19340;HTU21D;9804;52.350;6.684;2023-05-10T14:07:46;20.41;-6.00
19340;HTU21D;9804;52.350;6.684;2023-05-10T14:10:12;19.82;-6.00
19340;HTU21D;9804;52.350;6.684;2023-05-10T14:12:37;20.46;-6.00
19340;HTU21D;9804;52.350;6.684;2023-05-10T14:15:03;19.82;-6.00
19340;HTU21D;9804;52.350;6.684;2023-05-10T14:17:31;20.50;-6.00
19340;HTU21D;9804;52.350;6.684;2023-05-10T14:19:56;20.07;-6.00
19340;HTU21D;9804;52.350;6.684;2023-05-10T14:22:22;20.22;-6.00
19340;HTU21D;9804;52.350;6.684;2023-05-10T14:24:47;20.01;-6.00
19340;HTU21D;9804;52.350;6.684;2023-05-10T14:27:13;19.80;-6.00
19340;HTU21D;9804;52.350;6.684;2023-05-10T14:29:39;19.18;-6.00
19340;HTU21D;9804;52.350;6.684;2023-05-10T14:32:04;18.91;-6.00
19340;HTU21D;9804;52.350;6.684;2023-05-10T14:34:30;19.08;-6.00
19340;HTU21D;9804;52.350;6.684;2023-05-10T14:36:55;19.10;-6.00
19340;HTU21D;9804;52.350;6.684;2023-05-10T14:39:21;19.28;-6.00
19340;HTU21D;9804;52.350;6.684;2023-05-10T14:41:47;19.75;-6.00
19340;HTU21D;9804;52.350;6.684;2023-05-10T14:44:13;19.85;-6.00
19340;HTU21D;9804;52.350;6.684;2023-05-10T14:46:38;20.27;-6.00
19340;HTU21D;9804;52.350;6.684;2023-05-10T14:49:04;20.18;-6.00
19340;HTU21D;9804;52.350;6.684;2023-05-10T14:51:30;20.05;-6.00
19340;HTU21D;9804;52.350;6.684;2023-05-10T14:53:55;20.18;-6.00
19340;HTU21D;9804;52.350;6.684;2023-05-10T14:56:21;20.37;-6.00
19340;HTU21D;9804;52.350;6.684;2023-05-10T14:58:47;19.90;-6.00
19340;HTU21D;9804;52.350;6.684;2023-05-10T15:01:12;19.45;-6.00
19340;HTU21D;9804;52.350;6.684;2023-05-10T15:03:37;19.51;-6.00
19340;HTU21D;9804;52.350;6.684;2023-05-10T15:06:03;19.80;-6.00
19340;HTU21D;9804;52.350;6.684;2023-05-10T15:08:29;20.09;-6.00
19340;HTU21D;9804;52.350;6.684;2023-05-10T15:10:54;20.17;-6.00
19340;HTU21D;9804;52.350;6.684;2023-05-10T15:13:21;20.09;-6.00
19340;HTU21D;9804;52.350;6.684;2023-05-10T15:15:46;19.67;-6.00
19340;HTU21D;9804;52.350;6.684;2023-05-10T15:18:12;20.00;-6.00
19340;HTU21D;9804;52.350;6.684;2023-05-10T15:20:37;19.63;-6.00
19340;HTU21D;9804;52.350;6.684;2023-05-10T15:23:02;20.66;-6.00
19340;HTU21D;9804;52.350;6.684;2023-05-10T15:25:28;19.97;-6.00
19340;HTU21D;9804;52.350;6.684;2023-05-10T15:27:54;19.31;-6.00
19340;HTU21D;9804;52.350;6.684;2023-05-10T15:30:19;20.27;-6.00
19340;HTU21D;9804;52.350;6.684;2023-05-10T15:32:45;19.77;-6.00
19340;HTU21D;9804;52.350;6.684;2023-05-10T15:35:10;20.21;-6.00
19340;HTU21D;9804;52.350;6.684;2023-05-10T15:37:36;20.91;-6.00
19340;HTU21D;9804;52.350;6.684;2023-05-10T15:40:02;20.62;-6.00
19340;HTU21D;9804;52.350;6.684;2023-05-10T15:42:29;19.91;-6.00
19340;HTU21D;9804;52.350;6.684;2023-05-10T15:44:55;19.90;-6.00
19340;HTU21D;9804;52.350;6.684;2023-05-10T15:47:21;19.92;-6.00
19340;HTU21D;9804;52.350;6.684;2023-05-10T15:49:46;20.14;-6.00